Warning: Javascript must be enabled to use all the features on this page!


Page Loading - Please Wait...

Click to hideNews Bulletins

Peak Streamflow for the Nation

USGS 11022200 LOS COCHES C NR LAKESIDE CA

San Diego County, California
Hydrologic Unit Code 18070304
Latitude  32°50'10", Longitude 116°53'58" NAD27
Drainage area 12.2  square miles
Gage datum 553.74 feet above NAVD88
Output formats
Table
Graph
Tab-separated file
peakfq (watstore) format
Reselect output format
Water
Year
Date Gage
Height
(feet)
Stream-
flow
(cfs)
1984 1983-11-20   50.01,C
1985 1984-12-18 7.20 470C
1986 1985-11-25 6.32 290C
1987 1987-03-21 3.95 54.0C
1988 1987-10-31 5.22 146C
1989 1988-12-25 3.48 29.0C
1990 1990-01-14 4.68 99.0C
1991 1991-03-27 7.47 474C
1992 1992-02-12 5.09 136C
1993 1993-01-16 7.41 462C
1994 1994-03-25 4.54 103C
1995 1995-03-05 9.74 1,090C
1996 1996-03-13 6.81 372C
1997 1997-01-12 4.89 144C
1998 1998-02-08 8.89 819C
1999 1999-01-25 3.99 75.0C
2000 2000-02-21 4.86 142C
2001 2001-01-12 4.13 86.0C
2002 2002-03-18 3.41 26.0C
2003 2003-02-25 4.42 102C
2004 2004-02-22 8.08 609C
2005 2005-01-09 7.57 508C
2006 2006-03-11 4.29 97.0C
2007 2007-02-19 4.14 82.0C
2008 2007-12-01 4.92 145C
2009 2008-12-17 5.54 204C
2010 2010-01-20 6.862 380C
2011 2010-12-22 6.61 341C
2012 2012-03-17 4.21 92.0C
2013 2013-03-08 3.75 46.0C
2014 2014-03-01 3.73 51.0C
2015 2015-03-02 4.27 94.0C
2016 2016-01-06 7.56 506C
2017 2017-02-28 6.83 888C
2018 2018-01-09 3.97 125C
2019 2019-02-14 7.33 1,070C
2020 2019-12-26 5.47 465C
?
  Peak Gage-Height Qualification Codes.
?
  Peak Streamflow Qualification Codes.